Latest Weather Observations for Bourke

IDN60801

Issued at 11:02 pm EDT Tuesday 6 December 2016 (issued every 30 minutes, with the page automatically refreshed every 10 minutes)

About weather observations | Map of weather stations | Latest weather observations for NSW | Other Formats
Station Details ID: 048245 Name: BOURKE AIRPORT AWS Lat: -30.04 Lon: 145.95 Height: 107.3 m
Data from the previous 72 hours. | See also: Recent months at Bourke
Date/Time
EDT
Temp
°C
App
Temp
°C
Dew
Point
°C
Rel
Hum
%
Delta-T
°C
Wind Press
QNH
hPa
Press
MSL
hPa
Rain since
9am
mm
Dir  Spd
km/h
Gust
km/h
Spd
kts
Gust
kts
06/11:00pm 21.1 20.1 17.9 82 2.0 S 20 26 11 14 1014.4 1013.8 0.0
06/10:30pm 21.3 20.8 17.9 81 2.1 SSE 17 22 9 12 1013.9 1013.2 0.0
06/10:00pm 21.4 20.6 18.4 83 1.9 SSE 20 28 11 15 1013.6 1012.9 0.0
06/09:30pm 21.8 21.0 18.4 81 2.1 S 20 28 11 15 1014.3 1013.7 0.0
06/09:00pm 21.9 21.4 18.7 82 2.0 S 19 24 10 13 1014.0 1013.4 0.0
06/08:30pm 22.0 21.0 18.8 82 2.0 SSW 22 30 12 16 1014.4 1013.8 0.0
06/08:00pm 22.3 21.5 19.3 83 1.9 SSW 22 30 12 16 1013.3 1012.6 0.0
06/07:30pm 22.6 21.9 19.4 82 2.0 SSW 22 32 12 17 1013.2 1012.5 0.0
06/07:00pm 23.2 23.1 20.0 82 2.1 S 20 28 11 15 1012.5 1011.8 0.0
06/06:30pm 24.1 24.7 20.2 79 2.5 SSW 17 24 9 13 1011.9 1011.2 0.0
06/06:00pm 24.9 25.1 19.3 71 3.6 SW 17 28 9 15 1012.3 1011.6 0.0
06/05:30pm 27.4 26.7 17.3 54 6.4 SSW 17 24 9 13 1012.3 1011.6 0.0
06/05:00pm 27.7 25.7 17.5 53 6.5 SW 24 33 13 18 1012.1 1011.4 0.0
06/04:31pm 30.3 26.3 16.3 42 8.8 SW 32 50 17 27 1011.5 1010.8 0.0
06/04:30pm 30.2 26.0 16.2 42 8.8 SW 33 50 18 27 1011.5 1010.8 0.0
06/04:13pm 30.5 27.2 16.1 41 9.0 SW 28 46 15 25 1011.4 1010.7 0.0
06/04:00pm 30.8 27.1 16.0 40 9.3 SW 30 41 16 22 1011.2 1010.5 0.0
06/03:30pm 32.1 28.4 15.1 35 10.5 SW 28 44 15 24 1010.7 1010.0 0.0
06/03:00pm 35.3 32.0 14.0 28 13.2 SW 24 35 13 19 1010.2 1009.5 0.0
06/02:30pm 36.3 34.1 14.3 27 13.7 SW 19 33 10 18 1010.2 1009.5 0.0
06/02:00pm 35.9 34.5 14.5 27 13.3 W 15 26 8 14 1010.5 1009.8 0.0
06/01:30pm 36.0 35.0 14.6 27 13.3 WSW 13 20 7 11 1011.2 1010.5 0.0
06/01:00pm 34.7 33.3 13.5 28 13.0 WNW 13 20 7 11 1011.5 1010.8 0.0
06/12:30pm 34.9 34.0 13.7 28 13.0 NW 11 19 6 10 1012.1 1011.4 0.0
06/12:00pm 33.7 34.1 15.2 33 11.5 WSW 7 13 4 7 1012.6 1011.9 0.0
06/11:30am 32.4 32.6 15.8 36 10.4 NW 9 15 5 8 1012.8 1012.1 0.0
06/11:00am 31.5 32.7 15.9 39 9.8 W 4 11 2 6 1012.9 1012.2 0.0
06/10:30am 30.3 31.1 16.3 42 8.8 WNW 7 11 4 6 1013.3 1012.6 0.0
06/10:00am 29.8 31.0 17.3 47 7.9 WSW 7 11 4 6 1013.6 1012.9 0.0
06/09:30am 29.7 30.5 17.2 47 7.9 WNW 9 13 5 7 1013.4 1012.7 0.0
06/09:00am 29.9 30.5 16.7 45 8.3 SSW 9 15 5 8 1013.1 1012.4 0.0
06/08:30am 29.8 30.7 16.6 45 8.3 S 7 15 4 8 1012.8 1012.1 0.0
06/08:00am 28.4 29.0 16.7 49 7.3 SE 9 13 5 7 1012.1 1011.4 0.0
06/07:30am 27.5 28.9 17.7 55 6.2 S 7 9 4 5 1011.8 1011.1 0.0
06/07:00am 25.6 26.8 17.3 60 5.2 S 7 9 4 5 1011.4 1010.7 0.0
06/06:30am 25.2 26.5 17.1 60 5.0 SE 6 7 3 4 1010.8 1010.1 0.0
06/06:00am 24.7 25.7 16.9 62 4.8 S 7 11 4 6 1010.6 1009.9 0.0
06/05:30am 24.5 25.6 16.5 61 4.9 S 6 7 3 4 1010.1 1009.4 0.0
06/05:00am 24.8 26.0 16.8 61 5.0 SSW 6 7 3 4 1009.9 1009.2 0.0
06/04:30am 25.1 26.1 16.8 60 5.1 SSW 7 9 4 5 1009.9 1009.2 0.0
06/04:00am 25.1 25.8 17.1 61 5.0 SSW 9 11 5 6 1010.3 1009.6 0.0
06/03:30am 25.3 26.0 17.0 60 5.2 SSW 9 11 5 6 1010.1 1009.4 0.0
06/03:00am 25.2 25.7 16.6 59 5.3 SSW 9 9 5 5 1010.5 1009.8 0.0
06/02:30am 26.2 26.8 16.7 56 5.9 SW 9 11 5 6 1011.0 1010.3 0.0
06/02:00am 26.4 28.2 15.4 50 6.7 CALM 0 0 0 0 1010.9 1010.2 0.0
06/01:30am 26.9 28.9 15.9 51 6.8 CALM 0 0 0 0 1011.1 1010.4 0.0
06/01:00am 28.0 28.9 16.0 48 7.4 ESE 6 6 3 3 1011.0 1010.3 0.0
06/12:30am 28.6 28.6 16.2 47 7.7 S 11 13 6 7 1010.5 1009.8 0.0
06/12:00am 28.9 28.5 16.1 46 8.0 S 13 17 7 9 1010.5 1009.8 0.0
 
Date/Time
EDT
Temp
°C
App
Temp
°C
Dew
Point
°C
Rel
Hum
%
Delta-T
°C
Wind Press
QNH
hPa
Press
MSL
hPa
Rain since
9am
mm
Dir  Spd
km/h
Gust
km/h
Spd
kts
Gust
kts
05/11:30pm 29.3 28.5 16.1 44 8.2 SSE 15 20 8 11 1010.3 1009.6 0.0
05/11:00pm 29.6 28.1 16.4 45 8.3 SSE 19 26 10 14 1010.2 1009.5 0.0
05/10:30pm 30.0 28.4 16.4 44 8.5 S 20 30 11 16 1010.1 1009.4 0.0
05/10:00pm 29.6 28.4 17.4 47 7.8 SSW 20 24 11 13 1010.0 1009.3 0.0
05/09:30pm 28.8 27.7 17.7 51 7.1 SSW 20 28 11 15 1009.3 1008.7 0.0
05/09:00pm 28.8 27.9 18.3 53 6.8 SW 20 28 11 15 1009.2 1008.6 0.0
05/08:30pm 27.5 27.5 19.8 63 5.0 SW 19 24 10 13 1009.8 1009.1 0.0
05/08:00pm 30.6 27.7 16.2 41 9.0 WSW 26 44 14 24 1010.7 1010.0 0.0
05/07:58pm 30.8 27.1 16.0 40 9.3 WSW 30 48 16 26 1010.8 1010.1 0.0
05/07:51pm 31.6 27.2 15.1 36 10.2 SW 32 48 17 26 1010.3 1009.6 0.0
05/07:30pm 31.0 27.0 16.2 41 9.3 SW 32 44 17 24 1008.2 1007.6 0.0
05/07:23pm 30.5 25.0 15.8 41 9.2 SW 39 61 21 33 1007.9 1007.3 0.0
05/07:16pm 32.6 26.6 13.3 31 11.7 WSW 37 69 20 37 1007.5 1006.9 0.0
05/07:11pm 35.2 31.9 11.6 24 14.0 WSW 20 69 11 37 1007.9 1007.3 0.0
05/07:00pm 38.8 36.2 9.4 17 17.2 W 13 17 7 9 1006.7 1006.1 0.0
05/06:30pm 39.4 36.7 8.9 16 17.8 W 13 19 7 10 1006.5 1005.9 0.0
05/06:00pm 39.4 35.9 8.9 16 17.8 W 17 24 9 13 1006.6 1006.0 0.0
05/05:30pm 40.2 36.7 8.6 15 18.4 W 17 26 9 14 1006.6 1006.0 0.0
05/05:00pm 39.8 36.4 9.2 16 18.0 WSW 17 28 9 15 1006.9 1006.3 0.0
05/04:30pm 39.9 36.3 8.4 15 18.2 W 17 32 9 17 1007.1 1006.5 0.0
05/04:00pm 39.4 35.1 8.0 15 18.1 W 20 35 11 19 1007.3 1006.7 0.0
05/03:30pm 40.8 35.4 8.1 14 18.9 W 26 43 14 23 1007.6 1007.0 0.0
05/03:00pm 39.9 35.7 8.4 15 18.3 WNW 20 26 11 14 1007.8 1007.2 0.0
05/02:30pm 40.1 35.3 7.5 14 18.6 W 22 35 12 19 1008.0 1007.4 0.0
05/02:00pm 40.6 36.3 7.9 14 18.9 W 20 33 11 18 1008.4 1007.8 0.0
05/01:30pm 39.8 36.9 8.3 15 18.2 W 13 24 7 13 1008.6 1008.0 0.0
05/01:00pm 41.3 37.7 8.5 14 19.2 W 17 30 9 16 1008.9 1008.3 0.0
05/12:30pm 40.8 36.1 9.1 15 18.6 SW 24 39 13 21 1009.3 1008.7 0.0
05/12:00pm 38.9 34.2 9.4 17 17.3 SW 24 37 13 20 1009.7 1009.0 0.0
05/11:30am 38.8 34.7 8.5 16 17.5 WSW 20 32 11 17 1009.7 1009.0 0.0
05/11:00am 40.2 36.3 9.6 16 18.1 W 20 35 11 19 1009.9 1009.2 0.0
05/10:30am 38.0 34.9 10.4 19 16.3 W 17 28 9 15 1010.1 1009.4 0.0
05/10:00am 37.0 34.1 11.1 21 15.4 W 17 22 9 12 1010.2 1009.5 0.0
05/09:30am 36.2 33.3 11.1 22 14.9 W 17 24 9 13 1010.2 1009.5 0.0
05/09:00am 35.3 33.2 11.0 23 14.4 WNW 13 20 7 11 1010.3 1009.6 0.0
05/08:30am 34.8 32.9 11.9 25 13.7 NNW 13 19 7 10 1010.2 1009.5 0.0
05/08:00am 32.9 32.0 12.5 29 12.2 N 9 11 5 6 1009.8 1009.1 0.0
05/07:30am 31.9 30.7 12.7 31 11.5 N 11 17 6 9 1009.7 1009.0 0.0
05/07:00am 30.2 29.5 12.1 32 10.7 N 7 9 4 5 1008.8 1008.2 0.0
05/06:30am 30.1 29.6 12.5 34 10.4 NNW 7 9 4 5 1009.0 1008.4 0.0
05/06:00am 30.1 29.0 12.1 33 10.6 NNW 9 13 5 7 1008.7 1008.1 0.0
05/05:30am 30.3 28.7 12.7 34 10.4 N 13 13 7 7 1008.1 1007.5 0.0
05/05:00am 31.6 31.2 12.9 32 11.2 WSW 7 11 4 6 1007.5 1006.9 0.0
05/04:30am 30.0 30.2 12.9 35 10.2 NE 4 11 2 6 1007.4 1006.8 0.0
05/04:00am 30.4 30.9 12.8 34 10.5 SE 2 6 1 3 1007.3 1006.7 0.0
05/03:30am 30.6 30.6 12.5 33 10.7 ESE 4 6 2 3 1007.6 1007.0 0.0
05/03:00am 31.3 30.4 12.6 31 11.1 SSE 9 9 5 5 1007.6 1007.0 0.0
05/02:30am 32.2 31.8 12.4 30 11.8 SSW 6 9 3 5 1008.1 1007.5 0.0
05/02:00am 32.7 32.1 12.3 28 12.2 SW 7 13 4 7 1008.5 1007.9 0.0
05/01:30am 33.6 30.4 12.0 27 12.9 SW 20 30 11 16 1008.4 1007.8 0.0
05/01:00am 35.0 30.9 11.4 24 14.0 WSW 24 37 13 20 1008.3 1007.7 0.0
05/12:30am 35.9 31.8 10.2 21 15.0 W 22 35 12 19 1008.5 1007.9 0.0
05/12:09am 36.1 30.7 9.6 20 15.4 W 28 48 15 26 1008.3 1007.7 0.0
05/12:07am 36.2 31.2 9.7 20 15.4 WNW 26 48 14 26 1008.2 1007.6 0.0
05/12:00am 38.3 34.4 7.1 15 17.6 NNW 17 30 9 16 1007.5 1006.9 0.0
 
Date/Time
EDT
Temp
°C
App
Temp
°C
Dew
Point
°C
Rel
Hum
%
Delta-T
°C
Wind Press
QNH
hPa
Press
MSL
hPa
Rain since
9am
mm
Dir  Spd
km/h
Gust
km/h
Spd
kts
Gust
kts
04/11:30pm 37.5 33.9 8.3 17 16.7 NNW 17 22 9 12 1006.8 1006.2 0.0
04/11:00pm 38.0 33.5 6.9 15 17.5 NW 20 32 11 17 1007.0 1006.4 0.0
04/10:30pm 38.0 33.7 6.9 15 17.5 NW 19 30 10 16 1007.0 1006.4 0.0
04/10:00pm 38.1 34.0 6.0 14 17.8 NW 17 26 9 14 1006.6 1006.0 0.0
04/09:30pm 36.3 33.6 5.5 15 16.8 N 9 13 5 7 1005.9 1005.3 0.0
04/09:00pm 36.8 33.9 4.9 14 17.3 NNW 9 11 5 6 1005.7 1005.1 0.0
04/08:30pm 38.2 35.6 6.0 14 17.9 NW 9 11 5 6 1005.5 1004.8 0.0
04/08:00pm 39.1 36.8 5.7 13 18.6 WNW 7 11 4 6 1005.3 1004.6 0.0
04/07:30pm 40.6 38.2 6.8 13 19.2 W 9 13 5 7 1005.1 1004.4 0.0
04/07:00pm 41.3 38.2 7.4 13 19.5 W 13 20 7 11 1004.9 1004.2 0.0
04/06:30pm 41.2 37.5 6.1 12 19.8 W 15 20 8 11 1004.8 1004.1 0.0
04/06:00pm 41.7 37.8 5.3 11 20.4 W 15 26 8 14 1004.7 1004.0 0.0
04/05:30pm 42.4 37.8 5.8 11 20.6 WSW 19 39 10 21 1004.8 1004.1 0.0
04/05:00pm 42.6 38.9 4.6 10 21.1 NW 13 26 7 14 1005.0 1004.3 0.0
04/04:30pm 42.2 38.0 5.6 11 20.6 NNW 17 32 9 17 1005.3 1004.6 0.0
04/04:00pm 42.4 38.2 5.8 11 20.7 NW 17 26 9 14 1005.5 1004.8 0.0
04/03:30pm 42.2 37.7 4.3 10 20.9 NW 17 28 9 15 1005.8 1005.2 0.0
04/03:00pm 43.1 37.9 3.4 9 21.8 NNW 20 26 11 14 1006.1 1005.5 0.0
04/02:30pm 44.5 40.1 4.5 9 22.4 NE 17 37 9 20 1006.5 1005.9 0.0
04/02:00pm 44.8 41.1 6.2 10 22.2 NNE 15 30 8 16 1007.1 1006.5 0.0
04/01:30pm 42.1 37.6 4.2 10 20.9 NE 17 28 9 15 1007.8 1007.2 0.0
04/01:00pm 43.3 38.4 5.1 10 21.5 NNE 20 35 11 19 1008.3 1007.7 0.0
04/12:30pm 42.4 37.4 4.4 10 21.0 NE 20 33 11 18 1008.9 1008.3 0.0
04/12:00pm 41.9 36.3 5.4 11 20.4 NNE 24 35 13 19 1009.7 1009.0 0.0
04/11:30am 41.2 36.1 6.1 12 19.8 NNE 22 32 12 17 1010.1 1009.4 0.0
04/11:00am 40.0 35.0 6.4 13 18.9 NNE 22 32 12 17 1010.6 1009.9 0.0
04/10:30am 39.9 36.4 7.4 14 18.5 NNE 15 20 8 11 1010.9 1010.2 0.0
04/10:00am 37.4 33.7 6.4 15 17.2 NNE 15 20 8 11 1011.1 1010.4 0.0
04/09:30am 36.6 32.8 7.6 17 16.4 NE 17 24 9 13 1011.1 1010.4 0.0
04/09:00am 34.7 31.3 7.7 19 15.1 NE 15 20 8 11 1011.1 1010.4 0.0
04/08:30am 33.3 29.4 7.3 20 14.4 ENE 17 20 9 11 1011.0 1010.3 0.0
04/08:00am 32.2 27.9 7.1 21 13.8 NE 19 24 10 13 1011.0 1010.3 0.0
04/07:30am 31.3 27.0 7.1 22 13.2 ENE 19 24 10 13 1010.7 1010.0 0.0
04/07:00am 29.8 26.7 7.1 24 12.3 ENE 13 17 7 9 1010.7 1010.0 0.0
04/06:30am 28.1 24.8 6.2 25 11.6 ENE 13 15 7 8 1010.5 1009.8 0.0
04/06:00am 28.3 24.9 5.8 24 11.8 ENE 13 17 7 9 1010.4 1009.7 0.0
04/05:30am 28.9 26.0 6.3 24 12.0 E 11 15 6 8 1010.4 1009.7 0.0
04/05:00am 28.3 25.3 5.8 24 11.8 ESE 11 13 6 7 1010.1 1009.4 0.0
04/04:30am 27.9 24.9 6.1 25 11.5 S 11 15 6 8 1009.8 1009.1 0.0
04/04:00am 27.8 24.7 5.4 24 11.7 ENE 11 13 6 7 1009.4 1008.8 0.0
04/03:30am 28.8 25.6 5.0 22 12.4 ESE 11 13 6 7 1009.6 1008.9 0.0
04/03:00am 29.2 26.4 5.3 22 12.5 ESE 9 13 5 7 1009.8 1009.1 0.0
04/02:30am 29.8 26.8 5.8 22 12.7 SE 11 13 6 7 1009.9 1009.2 0.0
04/02:00am 30.9 27.9 6.0 21 13.3 SE 11 15 6 8 1010.3 1009.6 0.0
04/01:30am 32.0 28.7 6.2 20 13.9 SE 13 19 7 10 1010.5 1009.8 0.0
04/01:00am 31.2 28.3 6.3 21 13.4 SSE 11 13 6 7 1010.5 1009.8 0.0
04/12:30am 31.9 28.9 6.2 20 13.8 SSE 11 15 6 8 1010.6 1009.9 0.0
04/12:00am 33.1 30.0 5.6 18 14.8 S 11 15 6 8 1010.7 1010.0 0.0
 
Date/Time
EDT
Temp
°C
App
Temp
°C
Dew
Point
°C
Rel
Hum
%
Delta-T
°C
Wind Press
QNH
hPa
Press
MSL
hPa
Rain since
9am
mm
Dir  Spd
km/h
Gust
km/h
Spd
kts
Gust
kts
03/11:30pm 33.5 30.1 5.9 18 14.9 SSW 13 20 7 11 1010.6 1009.9 0.0

Other Formats:

Comma delimited format used in spreadsheet applications
http://www.bom.gov.au/fwo/IDN60801/IDN60801.94703.axf

JavaScript Object Notation format (JSON) in row-major order
http://www.bom.gov.au/fwo/IDN60801/IDN60801.94703.json